Flight Briefing for CPX322

Departure Arrival
Lehigh Valley International Airport (KABE)
Click to view FAA NOTAMS
Chicago/Rockford International Airport (KRFD)
Click to view FAA NOTAMS
Departure Time Arrival Time
N/A N/A
Aircraft Distance
B767-300BDSF 623nm
Departure METAR Arrival METAR
KABE 180551Z AUTO 11005KT 3SM -SN OVC007 01/M02 A2987 RMK AO2 UPB0456E0457FZRAB0457E48SNB48 PRESFR SLP118 P0003 60008 I1005 I6008 T00111017 10028 20011 58018 KRFD 180554Z 35009KT 3SM -SN BR OVC055 M07/M09 A3003 RMK AO2 SLP178 P0000 60003 T10671089 11039 21067 410221067 53022
Suggested Route
PSB J60 JOT V171 RFD


View recent IFR Routes data
Notes



Charts and Procedures

Charts for KABE
No chart available
Charts for KRFD
No chart available

Ventusky Weather